Pagina principale
METAR-TAF:

METAR-TAF

Aeroporti :

Emmen, Svizzera

latitudine: 47-05-32N, longitudine: 8-18-16E, altezza: 426 m

Osservazione

Il bollettino è stato emesso 24 minuti fa, alle 07:20 UTC
Vento calmo
Temperature 17°C
Umidità 68%
Pressione 1013 hPa
Visibilità 10 km o più
Cielo coperto ad un'altezza di 5900 ft

METAR: LSME 270720Z 00000KT 9999 OVC059 17/11 Q1013 RMK BLU

Ora: 09:44 (07:44 UTC)


TAF: mancante

Osservazioni e previsioni meteorologiche di più di 4000 aeroporti (messaggi METAR e TAF).

Le stazioni disponibili sono rappresentate dai dischi gialli e rossi sulla carta.

Puntare il mouse per vedere il nome della stazione.

Clicca sopra per visualizzare le osservazioni e previsioni meteorologiche.

Per cambiare la mappa : fare clic sui pulsanti verdi con una croce nera per ingrandire, il pulsante verde con un trattino per diminuire, o sulla freccia verde per le mappe adiacenti.


METAR-TAF: